Time;durP1;ratioP1;P1;durP2;ratioP2;P2;SDS_P1;SDS_P2;PMS_P1;PMS_P2;Temp;Humidity;BMP_temperature;BMP_pressure;BME280_temperature;BME280_humidity;BME280_pressure;Samples;Min_cycle;Max_cycle;Signal;HPM_P1;HPM_P2
2023/04/28 00:01:10;;;;;;;21.93;6.10;;;;;;;3.72;88.78;101422.97;5113651;28;20543;-69
2023/04/28 00:03:37;;;;;;;12.63;5.03;;;;;;;3.88;87.25;101422.22;5113769;28;20812;-69
2023/04/28 00:06:04;;;;;;;12.00;5.47;;;;;;;3.88;85.71;101410.69;5113548;28;20886;-69
2023/04/28 00:08:31;;;;;;;23.60;6.23;;;;;;;3.82;84.54;101412.44;5113585;28;20479;-70
2023/04/28 00:11:00;;;;;;;10.13;4.10;;;;;;;3.74;84.29;101416.31;5113609;28;20478;-72
2023/04/28 00:13:26;;;;;;;15.03;5.23;;;;;;;3.72;84.37;101410.38;5113342;28;20446;-71
2023/04/28 00:15:53;;;;;;;16.23;5.20;;;;;;;3.67;83.83;101418.28;5113175;28;20543;-69
2023/04/28 00:18:20;;;;;;;11.00;5.10;;;;;;;3.75;83.25;101404.53;5113282;28;20435;-69
2023/04/28 00:20:46;;;;;;;14.33;6.20;;;;;;;3.64;83.87;101416.09;5113546;28;20880;-69
2023/04/28 00:23:13;;;;;;;13.50;6.80;;;;;;;3.49;85.15;101408.50;5113510;28;20431;-69
2023/04/28 00:25:40;;;;;;;14.20;5.97;;;;;;;3.50;85.17;101404.00;5113392;28;20502;-69
2023/04/28 00:28:08;;;;;;;14.13;6.47;;;;;;;3.45;85.32;101419.91;5113421;28;20479;-68
2023/04/28 00:30:35;;;;;;;13.70;5.70;;;;;;;3.52;83.71;101410.72;5113392;28;20444;-68
2023/04/28 00:33:01;;;;;;;15.33;6.53;;;;;;;3.51;84.49;101411.78;5113303;28;20538;-68
2023/04/28 00:35:28;;;;;;;20.80;7.80;;;;;;;3.45;86.90;101417.25;5113069;28;20463;-68
2023/04/28 00:37:55;;;;;;;19.37;7.73;;;;;;;3.50;86.25;101407.47;5113117;28;20523;-68
2023/04/28 00:40:22;;;;;;;16.17;6.57;;;;;;;3.47;87.42;101404.44;5113057;28;20447;-69
2023/04/28 00:42:48;;;;;;;17.30;7.40;;;;;;;3.48;88.11;101404.19;5113333;28;20439;-68
2023/04/28 00:45:16;;;;;;;16.10;6.70;;;;;;;3.50;87.77;101395.97;5112909;28;20487;-68
2023/04/28 00:47:43;;;;;;;15.47;6.20;;;;;;;3.54;87.96;101399.75;5113274;28;20591;-68
2023/04/28 00:50:10;;;;;;;15.87;6.93;;;;;;;3.56;87.87;101397.69;5113179;28;20442;-68
2023/04/28 00:52:38;;;;;;;16.30;5.47;;;;;;;3.51;88.36;101403.75;5113360;28;20447;-68
2023/04/28 00:55:05;;;;;;;14.33;6.40;;;;;;;3.39;89.07;101388.72;5113162;28;20505;-68
2023/04/28 00:57:32;;;;;;;15.57;6.37;;;;;;;3.35;89.99;101391.03;5112977;28;21130;-68
2023/04/28 00:59:59;;;;;;;22.37;5.40;;;;;;;3.38;89.82;101385.25;5116634;28;20439;-68
2023/04/28 01:02:28;;;;;;;16.80;7.23;;;;;;;3.42;89.80;101389.06;5116768;28;20435;-68
2023/04/28 01:04:56;;;;;;;19.83;6.30;;;;;;;3.53;88.92;101393.59;5116663;28;20989;-68
2023/04/28 01:07:22;;;;;;;13.67;6.10;;;;;;;3.46;89.17;101384.09;5116679;28;20534;-68
2023/04/28 01:09:49;;;;;;;12.83;5.20;;;;;;;3.58;88.68;101376.00;5116565;28;20443;-68
2023/04/28 01:12:16;;;;;;;18.03;5.60;;;;;;;3.51;88.77;101382.31;5116939;28;20440;-68
2023/04/28 01:14:43;;;;;;;16.93;5.60;;;;;;;3.50;88.50;101377.22;5116793;28;20534;-68
2023/04/28 01:17:10;;;;;;;11.03;5.53;;;;;;;3.49;88.46;101371.00;5116804;28;20439;-68
2023/04/28 01:19:38;;;;;;;11.00;4.80;;;;;;;3.57;88.34;101371.72;5116534;28;20436;-68
2023/04/28 01:22:05;;;;;;;11.80;5.20;;;;;;;3.51;86.68;101360.91;5116390;28;20445;-68
2023/04/28 01:24:33;;;;;;;11.57;4.87;;;;;;;3.51;85.90;101362.75;5116632;28;20470;-69
2023/04/28 01:26:59;;;;;;;12.30;4.77;;;;;;;3.33;86.58;101360.22;5116376;28;21006;-69
2023/04/28 01:29:26;;;;;;;13.10;5.30;;;;;;;3.29;86.81;101360.69;5116558;27;20475;-68
2023/04/28 01:31:53;;;;;;;11.50;4.83;;;;;;;3.21;87.05;101365.56;5116494;28;20441;-68
2023/04/28 01:34:19;;;;;;;12.67;4.70;;;;;;;3.06;87.50;101359.88;5116279;28;20448;-69
2023/04/28 01:36:46;;;;;;;19.17;5.17;;;;;;;3.03;88.06;101363.81;5116479;28;20448;-69
2023/04/28 01:39:13;;;;;;;12.73;4.40;;;;;;;2.94;88.41;101357.16;5115341;28;20480;-68
2023/04/28 01:41:41;;;;;;;16.67;4.87;;;;;;;2.89;88.48;101359.72;5116422;28;20439;-69
2023/04/28 01:44:08;;;;;;;12.47;5.13;;;;;;;2.92;88.28;101352.06;5116342;28;20444;-69
2023/04/28 01:46:35;;;;;;;15.60;5.20;;;;;;;2.94;87.75;101351.81;5116116;28;20498;-69
2023/04/28 01:49:02;;;;;;;15.63;4.33;;;;;;;3.04;88.19;101352.06;5116121;28;20486;-69
2023/04/28 01:51:28;;;;;;;12.77;4.67;;;;;;;3.00;90.02;101351.69;5115842;28;20442;-69
2023/04/28 01:53:55;;;;;;;13.80;4.33;;;;;;;3.15;89.40;101353.13;5116141;28;20493;-72
2023/04/28 01:56:21;;;;;;;10.70;4.60;;;;;;;3.16;89.64;101347.53;5116003;28;20471;-71
2023/04/28 01:58:49;;;;;;;13.20;4.47;;;;;;;3.18;89.74;101342.75;5116069;28;20520;-69
2023/04/28 02:01:16;;;;;;;10.67;4.60;;;;;;;3.24;90.03;101349.84;5115755;28;20972;-69
2023/04/28 02:03:42;;;;;;;24.10;4.90;;;;;;;3.26;90.08;101345.06;5115652;28;20486;-69
2023/04/28 02:06:09;;;;;;;12.57;4.10;;;;;;;3.32;89.55;101331.78;5115909;28;20842;-69
2023/04/28 02:08:36;;;;;;;11.53;3.40;;;;;;;3.17;90.91;101351.00;5115521;28;20518;-69
2023/04/28 02:11:03;;;;;;;9.47;3.77;;;;;;;3.13;91.79;101342.63;5114615;28;20439;-68
2023/04/28 02:13:29;;;;;;;12.13;4.23;;;;;;;3.31;90.83;101338.19;5115426;28;21013;-68
2023/04/28 02:16:00;;;;;;;9.73;4.07;;;;;;;3.35;90.31;101337.50;5115636;28;20518;-68
2023/04/28 02:18:27;;;;;;;11.00;4.60;;;;;;;3.39;90.24;101343.19;5115742;28;20530;-68
2023/04/28 02:20:53;;;;;;;11.20;3.80;;;;;;;3.22;90.82;101332.38;5115537;28;20467;-68
2023/04/28 02:23:20;;;;;;;8.50;4.23;;;;;;;3.35;90.20;101331.34;5115489;27;20435;-68
2023/04/28 02:25:46;;;;;;;14.13;4.53;;;;;;;3.46;90.10;101338.56;5115452;28;20467;-68
2023/04/28 02:28:13;;;;;;;9.37;3.80;;;;;;;3.49;89.73;101338.06;5115395;28;20475;-68
2023/04/28 02:30:40;;;;;;;10.60;3.93;;;;;;;3.34;91.20;101329.72;5115409;28;20444;-67
2023/04/28 02:33:08;;;;;;;13.00;3.90;;;;;;;3.29;91.67;101333.91;5115416;28;20515;-68
2023/04/28 02:35:34;;;;;;;8.90;3.53;;;;;;;3.44;89.45;101333.41;5114866;28;20554;-68
2023/04/28 02:38:01;;;;;;;12.57;4.20;;;;;;;3.23;89.78;101334.00;5115016;28;20435;-68
2023/04/28 02:40:27;;;;;;;11.53;4.60;;;;;;;3.33;88.60;101328.09;5114992;28;20471;-69
2023/04/28 02:42:54;;;;;;;8.43;3.80;;;;;;;3.30;86.72;101324.00;5115179;28;20519;-68
2023/04/28 02:45:21;;;;;;;8.00;3.20;;;;;;;3.22;87.91;101325.16;5114982;28;20973;-70
2023/04/28 02:47:47;;;;;;;15.00;3.90;;;;;;;3.27;88.03;101319.09;5115051;28;20446;-68
2023/04/28 02:50:15;;;;;;;10.63;4.57;;;;;;;3.24;88.37;101322.28;5114886;28;20876;-68
2023/04/28 02:52:42;;;;;;;8.63;3.50;;;;;;;3.17;88.90;101316.22;5115027;28;20450;-68
2023/04/28 02:55:09;;;;;;;8.33;3.53;;;;;;;3.15;88.70;101315.66;5114946;28;20459;-68
2023/04/28 02:57:35;;;;;;;10.60;4.20;;;;;;;3.03;89.99;101313.78;5114879;28;20451;-68
2023/04/28 03:00:02;;;;;;;9.40;3.83;;;;;;;3.08;89.45;101313.06;5114747;28;20828;-68
2023/04/28 03:02:29;;;;;;;13.00;4.40;;;;;;;3.15;89.21;101312.97;5114810;28;20443;-68
2023/04/28 03:04:55;;;;;;;9.57;3.87;;;;;;;3.26;89.14;101312.94;5114661;28;20549;-68
2023/04/28 03:07:23;;;;;;;10.97;4.20;;;;;;;3.19;91.50;101309.59;5114921;28;20451;-68
2023/04/28 03:09:50;;;;;;;8.77;3.60;;;;;;;3.29;91.08;101309.81;5114263;28;20479;-68
2023/04/28 03:12:16;;;;;;;7.90;3.40;;;;;;;3.41;90.78;101306.28;5114281;28;20806;-67
2023/04/28 03:14:43;;;;;;;9.27;3.07;;;;;;;3.50;90.86;101315.63;5114434;28;20463;-68
2023/04/28 03:17:10;;;;;;;8.30;3.43;;;;;;;3.52;91.30;101300.09;5114519;28;20792;-68
2023/04/28 03:19:36;;;;;;;7.80;3.30;;;;;;;3.59;91.42;101303.47;5114501;28;20427;-68
2023/04/28 03:22:03;;;;;;;9.50;4.70;;;;;;;3.70;90.98;101305.28;5113737;28;20443;-68
2023/04/28 03:24:31;;;;;;;13.73;3.70;;;;;;;3.77;90.99;101307.84;5114288;28;20439;-67
2023/04/28 03:26:57;;;;;;;10.50;3.47;;;;;;;3.72;91.64;101303.22;5114296;28;20478;-68
2023/04/28 03:29:24;;;;;;;12.30;5.10;;;;;;;3.79;91.41;101300.38;5114228;28;20475;-69
2023/04/28 03:31:51;;;;;;;8.90;3.27;;;;;;;3.82;91.25;101294.56;5114260;28;20443;-69
2023/04/28 03:34:17;;;;;;;13.37;4.03;;;;;;;3.87;91.17;101296.53;5113604;28;20997;-69
2023/04/28 03:36:44;;;;;;;7.93;2.97;;;;;;;3.78;92.18;101294.22;5114137;28;20475;-69
2023/04/28 03:39:11;;;;;;;10.67;4.07;;;;;;;3.69;93.01;101290.28;5114090;28;20531;-69
2023/04/28 03:41:39;;;;;;;9.80;3.63;;;;;;;3.74;92.93;101297.59;5114055;28;20443;-69
2023/04/28 03:44:05;;;;;;;8.67;3.73;;;;;;;3.89;91.62;101295.22;5113615;28;21042;-69
2023/04/28 03:46:33;;;;;;;11.77;3.43;;;;;;;3.86;90.75;101297.59;5114040;28;20474;-69
2023/04/28 03:49:01;;;;;;;11.63;4.37;;;;;;;3.89;91.23;101283.69;5113619;28;20524;-66
2023/04/28 03:51:27;;;;;;;10.50;4.07;;;;;;;3.93;91.44;101282.16;5113890;28;20825;-67
2023/04/28 03:53:54;;;;;;;11.93;3.80;;;;;;;3.86;92.16;101284.19;5113845;28;20440;-67
2023/04/28 03:56:21;;;;;;;8.73;3.13;;;;;;;3.92;91.41;101286.69;5113758;28;20464;-66
2023/04/28 03:58:49;;;;;;;10.57;3.33;;;;;;;3.97;90.98;101278.75;5113796;28;20522;-66
2023/04/28 04:01:15;;;;;;;11.17;4.30;;;;;;;3.98;91.11;101276.88;5113469;28;20501;-66
2023/04/28 04:03:42;;;;;;;8.40;3.00;;;;;;;4.01;90.57;101273.72;5113668;28;20493;-66
2023/04/28 04:06:09;;;;;;;10.20;4.13;;;;;;;3.95;90.90;101274.69;5113714;28;20896;-66
2023/04/28 04:08:36;;;;;;;12.47;4.20;;;;;;;4.02;89.79;101272.66;5113301;28;20550;-65
2023/04/28 04:11:03;;;;;;;9.23;4.10;;;;;;;3.99;90.36;101273.97;5113313;28;20500;-66
2023/04/28 04:13:29;;;;;;;9.30;3.37;;;;;;;4.11;90.39;101276.59;5113573;28;20475;-66
2023/04/28 04:15:57;;;;;;;12.97;3.97;;;;;;;4.11;90.36;101275.78;5113170;28;20547;-66
2023/04/28 04:18:24;;;;;;;10.63;3.97;;;;;;;4.10;91.09;101274.97;5114965;28;20451;-67
2023/04/28 04:20:52;;;;;;;10.60;3.60;;;;;;;4.14;90.64;101268.06;5113228;28;20492;-67
2023/04/28 04:23:19;;;;;;;9.37;3.93;;;;;;;4.27;90.73;101267.78;5113530;28;20583;-67
2023/04/28 04:25:46;;;;;;;9.27;3.60;;;;;;;4.39;91.34;101269.59;5113449;28;20467;-68
2023/04/28 04:28:12;;;;;;;7.53;3.03;;;;;;;4.47;92.64;101269.16;5113483;28;20444;-68
2023/04/28 04:30:39;;;;;;;10.57;4.43;;;;;;;4.53;94.27;101265.53;5113453;28;20484;-66
2023/04/28 04:33:07;;;;;;;9.10;3.40;;;;;;;4.67;94.33;101257.94;5114099;28;20471;-67
2023/04/28 04:35:34;;;;;;;26.50;4.30;;;;;;;4.75;94.32;101266.41;5117290;28;20479;-67
2023/04/28 04:38:01;;;;;;;9.60;3.90;;;;;;;4.93;93.89;101256.47;5117260;28;21020;-67
2023/04/28 04:40:27;;;;;;;9.67;4.33;;;;;;;5.04;93.77;101263.59;5117547;27;20439;-67
2023/04/28 04:42:54;;;;;;;8.33;3.70;;;;;;;5.18;93.21;101258.66;5117204;28;20439;-70
2023/04/28 04:45:21;;;;;;;11.50;3.63;;;;;;;5.34;92.88;101262.38;5117501;28;20546;-69
2023/04/28 04:47:48;;;;;;;13.93;3.93;;;;;;;5.46;92.12;101263.06;5117487;27;20439;-69
2023/04/28 04:50:16;;;;;;;9.20;4.23;;;;;;;5.56;90.83;101255.13;5117215;28;20479;-68
2023/04/28 04:52:43;;;;;;;9.10;3.77;;;;;;;5.65;89.99;101267.06;5116979;28;20478;-67
2023/04/28 04:55:10;;;;;;;8.70;3.17;;;;;;;5.73;89.66;101260.44;5117229;28;20502;-68
2023/04/28 04:57:37;;;;;;;9.27;3.90;;;;;;;5.84;88.41;101262.16;5116876;28;20934;-68
2023/04/28 05:00:04;;;;;;;8.13;3.10;;;;;;;5.96;87.47;101259.38;5117232;28;20437;-68
2023/04/28 05:02:31;;;;;;;8.20;3.30;;;;;;;6.05;86.54;101258.66;5117134;28;20447;-68
2023/04/28 05:04:57;;;;;;;9.77;3.73;;;;;;;6.18;85.94;101256.63;5116898;28;20468;-68
2023/04/28 05:07:26;;;;;;;8.23;3.50;;;;;;;6.30;84.78;101254.59;5116901;28;20440;-68
2023/04/28 05:09:52;;;;;;;8.97;3.50;;;;;;;6.41;84.11;101260.84;5116877;28;20475;-68
2023/04/28 05:12:19;;;;;;;9.73;3.37;;;;;;;6.51;83.37;101244.81;5116949;28;20877;-68
2023/04/28 05:14:45;;;;;;;7.00;2.60;;;;;;;6.58;82.23;101245.38;5116827;28;20558;-68
2023/04/28 05:17:12;;;;;;;10.63;3.43;;;;;;;6.61;80.35;101241.38;5116847;28;20439;-68
2023/04/28 05:19:39;;;;;;;9.97;3.00;;;;;;;6.68;80.88;101241.94;5116841;28;20431;-68
2023/04/28 05:22:06;;;;;;;8.43;2.70;;;;;;;6.79;80.52;101244.47;5116460;28;20527;-68
2023/04/28 05:24:34;;;;;;;7.70;3.23;;;;;;;6.88;80.22;101235.91;5116716;28;20439;-68
2023/04/28 05:27:01;;;;;;;11.30;3.57;;;;;;;6.97;79.50;101229.75;5116385;28;20883;-70
2023/04/28 05:29:27;;;;;;;7.50;3.10;;;;;;;7.07;79.19;101226.31;5117053;28;20514;-71
2023/04/28 05:31:54;;;;;;;8.43;2.83;;;;;;;7.20;78.50;101227.72;5116571;28;20451;-67
2023/04/28 05:34:21;;;;;;;8.70;3.30;;;;;;;7.33;77.71;101233.44;5116234;28;20811;-68
2023/04/28 05:36:47;;;;;;;7.33;2.57;;;;;;;7.48;77.37;101226.47;5116437;28;20466;-68
2023/04/28 05:39:14;;;;;;;8.97;3.67;;;;;;;7.55;76.52;101227.84;5116452;28;20446;-68
2023/04/28 05:41:42;;;;;;;7.20;2.63;;;;;;;7.68;76.30;101221.16;5116380;28;20486;-67
2023/04/28 05:44:08;;;;;;;8.87;3.10;;;;;;;7.81;75.83;101219.84;5115743;28;20811;-67
2023/04/28 05:46:36;;;;;;;9.07;3.00;;;;;;;7.90;75.25;101215.53;5116176;28;20464;-67
2023/04/28 05:49:03;;;;;;;8.70;3.30;;;;;;;8.02;75.00;101223.41;5116237;28;20489;-68
2023/04/28 05:51:30;;;;;;;7.70;3.13;;;;;;;8.12;74.75;101217.19;5116205;28;20443;-68
2023/04/28 05:53:57;;;;;;;9.13;2.73;;;;;;;8.23;74.21;101210.72;5116091;28;20522;-69
2023/04/28 05:56:24;;;;;;;10.10;2.80;;;;;;;8.34;73.01;101210.44;5115673;28;21039;-68
2023/04/28 05:58:52;;;;;;;9.40;2.53;;;;;;;8.43;72.76;101208.03;5115687;28;20435;-68
2023/04/28 06:01:18;;;;;;;10.73;2.37;;;;;;;8.57;72.32;101208.28;5115970;28;20466;-68
2023/04/28 06:03:45;;;;;;;6.70;1.90;;;;;;;8.65;71.76;101199.66;5115543;28;20479;-68
2023/04/28 06:06:12;;;;;;;7.00;2.77;;;;;;;8.75;71.09;101207.72;5115647;28;20546;-68
2023/04/28 06:08:39;;;;;;;8.63;2.97;;;;;;;8.90;69.88;101203.38;5115943;28;20471;-68
2023/04/28 06:11:06;;;;;;;10.60;3.20;;;;;;;9.04;67.97;101199.03;5115778;28;20562;-68
2023/04/28 06:13:32;;;;;;;9.40;2.40;;;;;;;9.19;66.89;101204.34;5115759;28;20474;-69
2023/04/28 06:16:00;;;;;;;10.03;2.90;;;;;;;9.34;64.53;101204.31;5115630;28;20459;-69
2023/04/28 06:18:29;;;;;;;7.00;2.53;;;;;;;9.49;63.75;101205.31;5115735;28;20452;-69
2023/04/28 06:20:56;;;;;;;7.07;2.30;;;;;;;9.62;62.99;101199.28;5115635;28;20526;-72
2023/04/28 06:23:22;;;;;;;7.30;2.70;;;;;;;9.73;62.85;101203.53;5115340;28;20478;-70
2023/04/28 06:25:49;;;;;;;8.80;2.17;;;;;;;9.85;61.73;101208.63;5115361;28;21044;-69
2023/04/28 06:28:15;;;;;;;9.03;2.70;;;;;;;9.97;60.99;101194.75;5115201;28;21036;-69
2023/04/28 06:30:42;;;;;;;10.73;2.77;;;;;;;10.05;60.01;101197.66;5115447;28;20482;-68
2023/04/28 06:33:10;;;;;;;8.33;2.87;;;;;;;10.07;60.22;101194.66;5115399;28;20478;-70
2023/04/28 06:35:37;;;;;;;5.70;1.70;;;;;;;10.03;60.52;101193.63;5114951;28;20688;-69
2023/04/28 06:38:04;;;;;;;7.33;2.27;;;;;;;9.95;59.83;101191.50;5115316;28;20444;-69
2023/04/28 06:40:31;;;;;;;8.40;2.40;;;;;;;9.92;58.84;101202.91;5114902;27;20957;-67
2023/04/28 06:42:58;;;;;;;8.07;2.90;;;;;;;9.99;59.33;101189.84;5115584;28;20500;-67
2023/04/28 06:45:25;;;;;;;17.07;3.60;;;;;;;10.08;59.76;101194.38;5114908;28;20969;-67
2023/04/28 06:47:54;;;;;;;7.97;2.60;;;;;;;10.08;58.54;101186.25;5115321;28;20527;-68
2023/04/28 06:50:22;;;;;;;11.47;2.87;;;;;;;10.22;58.79;101189.13;5115158;28;20509;-68
2023/04/28 06:52:49;;;;;;;5.90;1.90;;;;;;;10.28;57.67;101185.31;5115065;28;20439;-67
2023/04/28 06:55:17;;;;;;;7.10;2.43;;;;;;;10.34;56.62;101186.88;5114891;27;20466;-67
2023/04/28 06:57:43;;;;;;;7.63;3.00;;;;;;;10.40;56.14;101173.28;5114316;28;20449;-67
2023/04/28 07:00:11;;;;;;;7.20;2.53;;;;;;;10.45;56.46;101173.28;5115031;27;20891;-67
2023/04/28 07:02:38;;;;;;;6.77;2.47;;;;;;;10.57;55.49;101173.66;5114684;28;20460;-71
2023/04/28 07:05:05;;;;;;;7.57;2.73;;;;;;;10.66;55.79;101171.16;5114893;28;20876;-70
2023/04/28 07:07:33;;;;;;;7.30;2.40;;;;;;;10.78;54.47;101177.78;5115071;28;20450;-70
2023/04/28 07:10:00;;;;;;;11.50;2.60;;;;;;;10.89;53.96;101172.25;5114668;28;20917;-69
2023/04/28 07:12:27;;;;;;;8.50;2.47;;;;;;;10.97;53.49;101174.31;5114651;28;20818;-67
2023/04/28 07:14:54;;;;;;;6.20;2.10;;;;;;;11.03;53.87;101165.06;5114708;28;20463;-67
2023/04/28 07:17:21;;;;;;;10.23;2.60;;;;;;;11.05;53.34;101165.56;5114725;28;20451;-67
2023/04/28 07:19:49;;;;;;;7.93;2.80;;;;;;;11.09;53.29;101156.56;5114632;28;20874;-67
2023/04/28 07:22:16;;;;;;;20.03;2.83;;;;;;;11.16;52.77;101156.22;5114311;28;20473;-67
2023/04/28 07:24:44;;;;;;;7.20;2.60;;;;;;;11.30;53.11;101150.88;5114206;28;20492;-68
2023/04/28 07:27:11;;;;;;;9.23;3.30;;;;;;;11.40;53.94;101147.22;5114523;28;20526;-68
2023/04/28 07:29:38;;;;;;;12.90;2.60;;;;;;;11.43;53.66;101139.31;5114391;28;20930;-67
2023/04/28 07:32:07;;;;;;;6.93;2.20;;;;;;;11.53;53.42;101149.19;5114396;28;20475;-67
2023/04/28 07:34:34;;;;;;;8.20;2.73;;;;;;;11.62;52.33;101148.25;5113964;28;20463;-67
2023/04/28 07:37:01;;;;;;;7.50;2.57;;;;;;;11.63;52.28;101138.19;5114035;27;20432;-68
2023/04/28 07:39:28;;;;;;;7.93;2.73;;;;;;;11.66;51.51;101125.97;5113850;28;20917;-67
2023/04/28 07:41:57;;;;;;;8.87;3.10;;;;;;;11.75;51.02;101127.69;5114161;28;20534;-68
2023/04/28 07:44:24;;;;;;;9.90;2.57;;;;;;;11.76;51.33;101131.22;5114198;28;20448;-69
2023/04/28 07:46:51;;;;;;;8.40;2.90;;;;;;;11.77;51.57;101128.19;5114231;28;20444;-69
2023/04/28 07:49:17;;;;;;;8.93;2.60;;;;;;;11.79;51.31;101119.78;5113659;28;20992;-67
2023/04/28 07:51:44;;;;;;;11.30;2.70;;;;;;;11.81;50.13;101128.41;5113934;28;20475;-68
2023/04/28 07:54:10;;;;;;;11.87;2.83;;;;;;;11.94;50.33;101132.31;5113900;28;20471;-68
2023/04/28 07:56:37;;;;;;;8.70;2.97;;;;;;;11.97;52.11;101118.97;5113840;28;20502;-68
2023/04/28 07:59:05;;;;;;;7.80;2.90;;;;;;;12.08;50.67;101114.16;5113848;28;20496;-68
2023/04/28 08:01:32;;;;;;;7.97;2.57;;;;;;;12.19;50.61;101118.31;5113436;28;20436;-68
2023/04/28 08:03:58;;;;;;;7.87;2.43;;;;;;;12.26;50.43;101117.91;5113750;28;20526;-68
2023/04/28 08:06:25;;;;;;;7.30;2.50;;;;;;;12.43;49.97;101122.78;5113327;28;21043;-68
2023/04/28 08:08:52;;;;;;;6.70;2.33;;;;;;;12.56;49.46;101122.00;5113697;28;20474;-68
2023/04/28 08:11:18;;;;;;;7.67;2.57;;;;;;;12.71;48.75;101121.72;5113622;28;20483;-68
2023/04/28 08:13:45;;;;;;;8.53;2.43;;;;;;;12.77;48.44;101117.78;5113577;28;20450;-68
2023/04/28 08:16:13;;;;;;;9.50;2.27;;;;;;;12.80;48.17;101117.19;5113578;28;20467;-68
2023/04/28 08:18:40;;;;;;;6.00;1.87;;;;;;;12.90;49.39;101120.78;5113560;28;20482;-68
2023/04/28 08:21:07;;;;;;;6.80;1.97;;;;;;;13.03;49.73;101117.25;5113623;28;20431;-68
2023/04/28 08:23:33;;;;;;;7.63;2.37;;;;;;;13.08;49.23;101112.50;5113542;28;20927;-68
2023/04/28 08:26:00;;;;;;;7.63;3.00;;;;;;;13.20;48.39;101113.91;5113470;28;20460;-68
2023/04/28 08:28:27;;;;;;;8.30;1.80;;;;;;;13.27;47.61;101111.59;5113554;28;20451;-67
2023/04/28 08:30:54;;;;;;;6.37;2.03;;;;;;;13.39;48.08;101111.88;5113429;28;20481;-67
2023/04/28 08:33:22;;;;;;;7.63;2.50;;;;;;;13.55;47.14;101098.72;5113199;28;20547;-67
2023/04/28 08:35:49;;;;;;;6.70;2.10;;;;;;;13.69;47.30;101109.56;5112949;28;20475;-68
2023/04/28 08:38:17;;;;;;;9.00;2.33;;;;;;;13.76;46.42;101105.28;5113423;28;20461;-67
2023/04/28 08:40:44;;;;;;;6.70;2.20;;;;;;;13.71;47.88;101108.13;5113117;28;20801;-67
2023/04/28 08:43:10;;;;;;;9.73;2.80;;;;;;;13.75;47.51;101098.22;5113040;28;21036;-68
2023/04/28 08:45:44;;;;;;;7.37;3.20;;;;;;;13.81;46.94;101105.16;5113314;28;20470;-68
2023/04/28 08:48:19;;;;;;;7.57;2.67;;;;;;;13.89;46.91;101096.22;5113556;28;20428;-68
2023/04/28 08:50:51;;;;;;;14.60;2.60;;;;;;;14.07;47.13;101099.84;5113217;28;20465;-68
2023/04/28 08:53:23;;;;;;;10.10;3.57;;;;;;;14.18;47.58;101094.16;5113257;28;20484;-68
2023/04/28 08:55:52;;;;;;;8.30;2.53;;;;;;;14.32;47.29;101083.97;5113126;28;20520;-67
2023/04/28 08:58:19;;;;;;;9.00;3.20;;;;;;;14.37;47.07;101079.19;5113072;28;20527;-67
2023/04/28 09:00:45;;;;;;;7.77;2.53;;;;;;;14.43;46.87;101084.50;5112930;28;20436;-68
2023/04/28 09:03:12;;;;;;;9.50;2.93;;;;;;;14.50;46.84;101080.22;5112756;28;20535;-67
2023/04/28 09:05:39;;;;;;;7.90;2.70;;;;;;;14.61;46.22;101078.03;5112905;28;20551;-68
2023/04/28 09:08:07;;;;;;;11.13;2.90;;;;;;;14.57;44.84;101079.78;5113053;28;20814;-67
2023/04/28 09:10:33;;;;;;;8.50;2.73;;;;;;;14.61;45.42;101064.41;5112961;28;20850;-67
2023/04/28 09:13:00;;;;;;;10.07;2.80;;;;;;;14.58;45.76;101060.38;5112683;28;20530;-67
2023/04/28 09:15:31;;;;;;;8.20;2.60;;;;;;;14.64;46.51;101059.09;5112706;28;21050;-68
2023/04/28 09:17:58;;;;;;;7.93;3.00;;;;;;;14.68;46.15;101055.75;5112919;28;20463;-68
2023/04/28 09:20:26;;;;;;;10.03;3.77;;;;;;;14.79;44.93;101055.16;5115632;28;20444;-68
2023/04/28 09:22:54;;;;;;;10.27;3.67;;;;;;;14.82;44.41;101050.97;5116769;28;20439;-68
2023/04/28 09:25:25;;;;;;;7.67;2.77;;;;;;;14.97;45.32;101042.34;5116731;27;20550;-67
2023/04/28 09:27:52;;;;;;;12.40;2.77;;;;;;;15.22;45.03;101048.91;5116696;28;20484;-68
2023/04/28 09:30:19;;;;;;;8.40;2.80;;;;;;;15.30;44.85;101050.84;5116485;27;20566;-68
2023/04/28 09:32:46;;;;;;;8.57;2.80;;;;;;;15.37;44.34;101042.19;5116563;28;20508;-68
2023/04/28 09:35:13;;;;;;;9.90;3.47;;;;;;;15.46;44.55;101039.47;5116214;28;20471;-68
2023/04/28 09:37:42;;;;;;;7.33;2.60;;;;;;;15.50;43.94;101030.31;5116469;28;20839;-67
2023/04/28 09:40:11;;;;;;;8.80;2.83;;;;;;;15.54;45.49;101030.47;5116172;28;20534;-68
2023/04/28 09:42:40;;;;;;;7.70;3.00;;;;;;;15.55;44.61;101029.31;5116170;28;20478;-67
2023/04/28 09:45:08;;;;;;;6.63;2.80;;;;;;;15.66;43.87;101027.88;5116280;28;20461;-67
2023/04/28 09:47:36;;;;;;;7.30;3.00;;;;;;;15.55;44.02;101026.59;5116125;28;20446;-67
2023/04/28 09:50:05;;;;;;;8.23;2.93;;;;;;;15.70;44.66;101023.38;5116308;28;20548;-67
2023/04/28 09:52:33;;;;;;;7.87;2.73;;;;;;;15.74;43.24;101020.81;5116163;28;20467;-68
2023/04/28 09:55:01;;;;;;;16.53;2.80;;;;;;;15.76;43.39;101026.72;5116076;27;20456;-67
2023/04/28 09:57:31;;;;;;;8.13;2.70;;;;;;;15.83;44.38;101018.84;5116166;28;20439;-68
2023/04/28 10:00:00;;;;;;;14.23;3.17;;;;;;;15.74;43.34;101024.34;5115719;28;20518;-68
2023/04/28 10:02:27;;;;;;;10.20;3.00;;;;;;;15.84;43.87;101018.50;5116016;28;20522;-68
2023/04/28 10:04:53;;;;;;;6.37;2.27;;;;;;;15.91;43.98;101022.69;5115945;28;20536;-68
2023/04/28 10:07:21;;;;;;;13.50;2.67;;;;;;;15.93;43.68;101013.03;5115694;28;20435;-68
2023/04/28 10:09:50;;;;;;;8.70;2.20;;;;;;;16.12;44.55;101013.44;5115597;28;20439;-68
2023/04/28 10:12:17;;;;;;;8.53;2.50;;;;;;;16.26;43.69;101010.50;5115706;28;20487;-68
2023/04/28 10:14:44;;;;;;;9.00;2.67;;;;;;;16.40;42.70;101002.84;5115443;27;20455;-68
2023/04/28 10:17:13;;;;;;;11.30;2.70;;;;;;;16.50;43.14;100998.13;5115844;28;20514;-68
2023/04/28 10:19:40;;;;;;;7.47;2.97;;;;;;;16.62;41.84;100992.75;5115358;28;20446;-68
2023/04/28 10:22:37;;;;;;;15.50;3.13;;;;;;;16.63;42.25;100992.41;5115679;28;20471;-67
2023/04/28 10:25:21;;;;;;;9.20;2.87;;;;;;;16.80;42.93;100990.75;5115516;27;20546;-67
2023/04/28 10:27:49;;;;;;;9.60;3.47;;;;;;;16.84;42.63;100988.94;5115272;28;20911;-68
2023/04/28 10:30:17;;;;;;;7.20;2.40;;;;;;;16.94;42.29;100985.00;5114927;28;20440;-69
2023/04/28 10:32:46;;;;;;;12.97;2.53;;;;;;;17.05;42.81;100984.28;5114902;28;20431;-69
2023/04/28 10:35:41;;;;;;;6.73;2.90;;;;;;;17.25;42.43;100981.84;5115010;28;20589;-67
2023/04/28 10:38:11;;;;;;;7.93;2.70;;;;;;;17.36;41.66;100986.56;5115033;28;20447;-68
2023/04/28 10:40:38;;;;;;;7.87;3.20;;;;;;;17.44;41.78;100979.38;5115353;28;20538;-71
2023/04/28 10:43:06;;;;;;;8.17;2.40;;;;;;;17.57;41.24;100972.81;5115372;28;20475;-67
2023/04/28 10:46:13;;;;;;;6.70;2.17;;;;;;;17.81;41.63;100977.59;5115142;28;20459;-67
2023/04/28 10:48:56;;;;;;;7.13;2.63;;;;;;;17.94;41.20;100959.22;5115066;28;20431;-67
2023/04/28 10:51:29;;;;;;;8.63;3.13;;;;;;;17.94;39.25;100967.44;5115039;28;20475;-67
2023/04/28 10:54:27;;;;;;;6.50;2.23;;;;;;;17.93;40.62;100967.75;5114766;28;20424;-67
2023/04/28 10:57:16;;;;;;;6.20;2.53;;;;;;;18.16;40.56;100963.44;5115190;28;20431;-67
2023/04/28 10:59:43;;;;;;;9.07;2.90;;;;;;;18.47;40.39;100951.09;5114991;28;20447;-67
2023/04/28 11:02:39;;;;;;;7.30;2.40;;;;;;;18.77;39.87;100944.19;5114995;28;20432;-67
2023/04/28 11:05:20;;;;;;;10.20;2.63;;;;;;;19.00;38.82;100949.16;5114883;28;20463;-67
2023/04/28 11:08:32;;;;;;;7.80;2.10;;;;;;;19.06;38.27;100955.97;5114623;28;20971;-67
2023/04/28 11:11:18;;;;;;;7.07;2.70;;;;;;;19.31;38.87;100943.75;5114530;27;20981;-67
2023/04/28 11:13:46;;;;;;;8.67;2.73;;;;;;;19.56;38.69;100938.88;5114837;27;20423;-67
2023/04/28 11:16:18;;;;;;;10.90;2.13;;;;;;;19.78;37.73;100951.25;5114595;28;20463;-67
2023/04/28 11:18:56;;;;;;;6.20;2.20;;;;;;;20.34;37.69;100947.47;5114664;28;20424;-68
2023/04/28 11:21:27;;;;;;;8.53;2.90;;;;;;;20.70;35.52;100951.06;5114646;28;20476;-67
2023/04/28 11:23:54;;;;;;;8.33;2.77;;;;;;;20.81;35.27;100950.13;5114185;28;20899;-69
2023/04/28 11:26:22;;;;;;;10.03;2.93;;;;;;;20.72;35.08;100943.22;5114304;28;20495;-68
2023/04/28 11:28:53;;;;;;;7.90;2.50;;;;;;;20.99;35.55;100944.19;5114453;28;20872;-68
2023/04/28 11:31:22;;;;;;;8.67;2.70;;;;;;;20.81;35.91;100941.88;5114465;27;20459;-67